CheckWX is a tool to help pilots better visualize weather data.  It is not intended as a substitute for an official pre-flight weather briefing.

20:11:35 UTC

KSAT METAR
San Antonio International Airport
San Antonio, Texas, USA
Current

21 mins ago

KSAT 261951Z 06006KT 10SM FEW035 SCT150 BKN250 30/20 A3008 RMK AO2 RAE1856 TSB1855E10 SLP168 TCU DSNT E P0000 T03000200
Observed
Jun-26 @ 19:51 UTC
Wind
  • 060° at 6 KTS
Visibility
10 SM
Flight Rules
VFR
Cloud Levels
  • Few at 3,500' AGL
  • Scattered at 15,000' AGL
  • Broken at 25,000' AGL
Temperature
30°C / 86°F
Dewpoint
20°C / 68°F
Heat Index
32°C / 89°F
Humidity
55%
Altimeter
30.08" Hg
Pressure
1018.62 hPa
Current Rain
0.01"
Previous

1 hour ago

KSAT 261911Z 07007KT 10SM FEW035 SCT075 BKN250 28/19 A3008 RMK AO2 RAE1856 TSB1855E10 CB DSNT N-NE P0000 T02830194
Observed
Jun-26 @ 19:11 UTC
Wind
  • 070° at 7 KTS
Visibility
10 SM
Flight Rules
VFR
Cloud Levels
  • Few at 3,500' AGL
  • Scattered at 7,500' AGL
  • Broken at 25,000' AGL
Temperature
28°C / 82°F
Dewpoint
19°C / 66°F
Heat Index
29°C / 84°F
Humidity
58%
Altimeter
30.08" Hg
Pressure
1018.62 hPa
Current Rain
0.01"
Previous

1 hour ago

KSAT 261855Z 10010KT 10SM -TSRA FEW035 BKN075 BKN250 28/20 A3008 RMK AO2 LTG DSNT N TSB55 OCNL LTGICCG TS DSNT N-E MOVG NW P0000 T02830200
Observed
Jun-26 @ 18:55 UTC
Wind
  • 100° at 10 KTS
Visibility
10 SM
Flight Rules
VFR
Conditions
Light Thunderstorm, Light Rain
Cloud Levels
  • Few at 3,500' AGL
  • Broken at 7,500' AGL
  • Broken at 25,000' AGL
Temperature
28°C / 82°F
Dewpoint
20°C / 68°F
Heat Index
29°C / 85°F
Humidity
62%
Altimeter
30.08" Hg
Pressure
1018.62 hPa
Current Rain
0.01"